sensor_id;sensor_type;location;lat;lon;timestamp;P1;durP1;ratioP1;P2;durP2;ratioP2
4895;SDS011;2463;49.948;8.472;2023-11-21T00:01:05;90.78;;;5.10;;
4895;SDS011;2463;49.948;8.472;2023-11-21T00:03:35;89.60;;;5.10;;
4895;SDS011;2463;49.948;8.472;2023-11-21T00:06:02;90.60;;;5.18;;
4895;SDS011;2463;49.948;8.472;2023-11-21T00:08:29;91.82;;;5.28;;
4895;SDS011;2463;49.948;8.472;2023-11-21T00:10:56;94.63;;;5.50;;
4895;SDS011;2463;49.948;8.472;2023-11-21T00:13:23;90.93;;;5.45;;
4895;SDS011;2463;49.948;8.472;2023-11-21T00:15:49;92.47;;;5.50;;
4895;SDS011;2463;49.948;8.472;2023-11-21T00:18:16;90.13;;;5.20;;
4895;SDS011;2463;49.948;8.472;2023-11-21T00:20:43;94.60;;;5.65;;
4895;SDS011;2463;49.948;8.472;2023-11-21T00:23:10;89.82;;;5.28;;
4895;SDS011;2463;49.948;8.472;2023-11-21T00:25:36;90.68;;;5.45;;
4895;SDS011;2463;49.948;8.472;2023-11-21T00:28:03;90.95;;;4.95;;
4895;SDS011;2463;49.948;8.472;2023-11-21T00:30:30;89.53;;;5.40;;
4895;SDS011;2463;49.948;8.472;2023-11-21T00:32:57;90.63;;;5.50;;
4895;SDS011;2463;49.948;8.472;2023-11-21T00:35:24;92.03;;;5.57;;
4895;SDS011;2463;49.948;8.472;2023-11-21T00:37:51;90.70;;;5.72;;
4895;SDS011;2463;49.948;8.472;2023-11-21T00:40:18;90.03;;;5.40;;
4895;SDS011;2463;49.948;8.472;2023-11-21T00:42:48;97.85;;;5.57;;
4895;SDS011;2463;49.948;8.472;2023-11-21T00:45:16;91.47;;;5.20;;
4895;SDS011;2463;49.948;8.472;2023-11-21T00:47:42;93.45;;;5.78;;
4895;SDS011;2463;49.948;8.472;2023-11-21T00:50:09;102.47;;;5.50;;
4895;SDS011;2463;49.948;8.472;2023-11-21T00:52:36;89.63;;;5.28;;
4895;SDS011;2463;49.948;8.472;2023-11-21T00:55:03;91.85;;;5.13;;
4895;SDS011;2463;49.948;8.472;2023-11-21T00:57:31;91.20;;;5.00;;
4895;SDS011;2463;49.948;8.472;2023-11-21T00:59:58;90.07;;;5.53;;
4895;SDS011;2463;49.948;8.472;2023-11-21T01:02:24;92.00;;;6.15;;
4895;SDS011;2463;49.948;8.472;2023-11-21T01:04:52;91.32;;;5.70;;
4895;SDS011;2463;49.948;8.472;2023-11-21T01:07:19;90.63;;;5.10;;
4895;SDS011;2463;49.948;8.472;2023-11-21T01:09:49;94.85;;;5.97;;
4895;SDS011;2463;49.948;8.472;2023-11-21T01:12:15;92.32;;;6.25;;
4895;SDS011;2463;49.948;8.472;2023-11-21T01:14:43;93.45;;;6.13;;
4895;SDS011;2463;49.948;8.472;2023-11-21T01:17:11;93.13;;;5.72;;
4895;SDS011;2463;49.948;8.472;2023-11-21T01:19:38;91.85;;;5.57;;
4895;SDS011;2463;49.948;8.472;2023-11-21T01:22:05;96.63;;;6.03;;
4895;SDS011;2463;49.948;8.472;2023-11-21T01:24:31;90.95;;;5.47;;
4895;SDS011;2463;49.948;8.472;2023-11-21T01:26:58;92.07;;;5.78;;
4895;SDS011;2463;49.948;8.472;2023-11-21T01:29:24;94.80;;;5.78;;
4895;SDS011;2463;49.948;8.472;2023-11-21T01:31:51;90.82;;;5.80;;
4895;SDS011;2463;49.948;8.472;2023-11-21T01:34:18;92.50;;;5.60;;
4895;SDS011;2463;49.948;8.472;2023-11-21T01:36:45;92.20;;;5.30;;
4895;SDS011;2463;49.948;8.472;2023-11-21T01:39:12;91.20;;;6.38;;
4895;SDS011;2463;49.948;8.472;2023-11-21T01:41:42;95.70;;;6.40;;
4895;SDS011;2463;49.948;8.472;2023-11-21T01:44:10;90.53;;;5.47;;
4895;SDS011;2463;49.948;8.472;2023-11-21T01:46:37;94.88;;;6.22;;
4895;SDS011;2463;49.948;8.472;2023-11-21T01:49:05;89.93;;;5.50;;
4895;SDS011;2463;49.948;8.472;2023-11-21T01:51:32;96.78;;;6.00;;
4895;SDS011;2463;49.948;8.472;2023-11-21T01:53:59;92.45;;;5.50;;
4895;SDS011;2463;49.948;8.472;2023-11-21T01:56:25;91.30;;;5.60;;
4895;SDS011;2463;49.948;8.472;2023-11-21T01:58:52;90.03;;;6.00;;
4895;SDS011;2463;49.948;8.472;2023-11-21T02:01:20;93.55;;;5.82;;
4895;SDS011;2463;49.948;8.472;2023-11-21T02:03:46;96.93;;;5.70;;
4895;SDS011;2463;49.948;8.472;2023-11-21T02:06:13;93.57;;;7.53;;
4895;SDS011;2463;49.948;8.472;2023-11-21T02:08:40;90.50;;;5.65;;
4895;SDS011;2463;49.948;8.472;2023-11-21T02:11:10;92.18;;;6.10;;
4895;SDS011;2463;49.948;8.472;2023-11-21T02:13:39;91.15;;;5.53;;
4895;SDS011;2463;49.948;8.472;2023-11-21T02:16:10;90.78;;;5.38;;
4895;SDS011;2463;49.948;8.472;2023-11-21T02:18:39;101.55;;;6.50;;
4895;SDS011;2463;49.948;8.472;2023-11-21T02:21:06;95.28;;;6.20;;
4895;SDS011;2463;49.948;8.472;2023-11-21T02:23:33;98.00;;;6.60;;
4895;SDS011;2463;49.948;8.472;2023-11-21T02:25:59;94.18;;;5.90;;
4895;SDS011;2463;49.948;8.472;2023-11-21T02:28:30;92.07;;;6.03;;
4895;SDS011;2463;49.948;8.472;2023-11-21T02:30:57;95.85;;;6.32;;
4895;SDS011;2463;49.948;8.472;2023-11-21T02:33:25;89.55;;;5.75;;
4895;SDS011;2463;49.948;8.472;2023-11-21T02:35:51;91.57;;;6.03;;
4895;SDS011;2463;49.948;8.472;2023-11-21T02:38:21;91.45;;;6.00;;
4895;SDS011;2463;49.948;8.472;2023-11-21T02:40:47;92.45;;;5.70;;
4895;SDS011;2463;49.948;8.472;2023-11-21T02:43:15;91.70;;;5.97;;
4895;SDS011;2463;49.948;8.472;2023-11-21T02:45:42;90.13;;;5.60;;
4895;SDS011;2463;49.948;8.472;2023-11-21T02:48:08;93.97;;;6.28;;
4895;SDS011;2463;49.948;8.472;2023-11-21T02:50:35;94.40;;;8.52;;
4895;SDS011;2463;49.948;8.472;2023-11-21T02:53:02;93.55;;;7.30;;
4895;SDS011;2463;49.948;8.472;2023-11-21T02:55:29;91.60;;;6.70;;
4895;SDS011;2463;49.948;8.472;2023-11-21T02:57:57;94.43;;;7.03;;
4895;SDS011;2463;49.948;8.472;2023-11-21T03:00:23;92.18;;;6.50;;
4895;SDS011;2463;49.948;8.472;2023-11-21T03:02:52;91.80;;;6.55;;
4895;SDS011;2463;49.948;8.472;2023-11-21T03:05:21;95.80;;;6.55;;
4895;SDS011;2463;49.948;8.472;2023-11-21T03:07:48;92.85;;;6.70;;
4895;SDS011;2463;49.948;8.472;2023-11-21T03:10:14;92.82;;;7.43;;
4895;SDS011;2463;49.948;8.472;2023-11-21T03:12:41;95.85;;;7.10;;
4895;SDS011;2463;49.948;8.472;2023-11-21T03:15:08;91.97;;;6.68;;
4895;SDS011;2463;49.948;8.472;2023-11-21T03:17:36;91.45;;;6.03;;
4895;SDS011;2463;49.948;8.472;2023-11-21T03:20:03;91.60;;;6.45;;
4895;SDS011;2463;49.948;8.472;2023-11-21T03:22:31;94.38;;;6.75;;
4895;SDS011;2463;49.948;8.472;2023-11-21T03:24:58;90.95;;;6.80;;
4895;SDS011;2463;49.948;8.472;2023-11-21T03:27:24;94.72;;;7.10;;
4895;SDS011;2463;49.948;8.472;2023-11-21T03:29:51;91.30;;;6.88;;
4895;SDS011;2463;49.948;8.472;2023-11-21T03:32:18;94.45;;;6.90;;
4895;SDS011;2463;49.948;8.472;2023-11-21T03:34:54;91.93;;;6.47;;
4895;SDS011;2463;49.948;8.472;2023-11-21T03:37:22;91.38;;;6.20;;
4895;SDS011;2463;49.948;8.472;2023-11-21T03:39:49;91.18;;;6.65;;
4895;SDS011;2463;49.948;8.472;2023-11-21T03:42:16;93.10;;;6.72;;
4895;SDS011;2463;49.948;8.472;2023-11-21T03:44:43;95.78;;;7.68;;
4895;SDS011;2463;49.948;8.472;2023-11-21T03:47:10;96.10;;;6.80;;
4895;SDS011;2463;49.948;8.472;2023-11-21T03:49:37;93.03;;;7.13;;
4895;SDS011;2463;49.948;8.472;2023-11-21T03:52:04;91.88;;;6.93;;
4895;SDS011;2463;49.948;8.472;2023-11-21T03:54:31;94.47;;;7.15;;
4895;SDS011;2463;49.948;8.472;2023-11-21T03:56:58;94.35;;;7.70;;
4895;SDS011;2463;49.948;8.472;2023-11-21T03:59:24;93.88;;;7.07;;
4895;SDS011;2463;49.948;8.472;2023-11-21T04:01:51;96.15;;;6.72;;
4895;SDS011;2463;49.948;8.472;2023-11-21T04:04:18;92.68;;;6.25;;
4895;SDS011;2463;49.948;8.472;2023-11-21T04:06:46;94.03;;;7.72;;
4895;SDS011;2463;49.948;8.472;2023-11-21T04:09:12;91.68;;;6.32;;
4895;SDS011;2463;49.948;8.472;2023-11-21T04:11:39;92.85;;;7.05;;
4895;SDS011;2463;49.948;8.472;2023-11-21T04:14:05;96.10;;;6.40;;
4895;SDS011;2463;49.948;8.472;2023-11-21T04:16:32;95.82;;;6.70;;
4895;SDS011;2463;49.948;8.472;2023-11-21T04:18:59;94.68;;;6.88;;
4895;SDS011;2463;49.948;8.472;2023-11-21T04:21:26;95.82;;;6.30;;
4895;SDS011;2463;49.948;8.472;2023-11-21T04:23:53;92.18;;;6.43;;
4895;SDS011;2463;49.948;8.472;2023-11-21T04:26:20;91.15;;;6.68;;
4895;SDS011;2463;49.948;8.472;2023-11-21T04:28:46;93.70;;;6.97;;
4895;SDS011;2463;49.948;8.472;2023-11-21T04:31:13;93.03;;;6.38;;
4895;SDS011;2463;49.948;8.472;2023-11-21T04:33:40;93.20;;;6.00;;
4895;SDS011;2463;49.948;8.472;2023-11-21T04:36:06;125.75;;;8.07;;
4895;SDS011;2463;49.948;8.472;2023-11-21T04:38:33;93.57;;;7.18;;
4895;SDS011;2463;49.948;8.472;2023-11-21T04:41:00;90.70;;;6.15;;
4895;SDS011;2463;49.948;8.472;2023-11-21T04:43:29;94.57;;;6.40;;
4895;SDS011;2463;49.948;8.472;2023-11-21T04:45:55;88.93;;;5.22;;
4895;SDS011;2463;49.948;8.472;2023-11-21T04:48:22;92.18;;;5.70;;
4895;SDS011;2463;49.948;8.472;2023-11-21T04:50:49;89.10;;;5.55;;
4895;SDS011;2463;49.948;8.472;2023-11-21T04:53:15;93.65;;;7.38;;
4895;SDS011;2463;49.948;8.472;2023-11-21T04:55:42;90.43;;;5.72;;
4895;SDS011;2463;49.948;8.472;2023-11-21T04:58:10;89.63;;;5.22;;
4895;SDS011;2463;49.948;8.472;2023-11-21T05:00:38;90.38;;;5.72;;
4895;SDS011;2463;49.948;8.472;2023-11-21T05:03:06;90.50;;;5.75;;
4895;SDS011;2463;49.948;8.472;2023-11-21T05:05:33;90.32;;;5.50;;
4895;SDS011;2463;49.948;8.472;2023-11-21T05:08:00;91.90;;;5.50;;
4895;SDS011;2463;49.948;8.472;2023-11-21T05:10:27;90.80;;;6.03;;
4895;SDS011;2463;49.948;8.472;2023-11-21T05:12:55;91.43;;;5.07;;
4895;SDS011;2463;49.948;8.472;2023-11-21T05:15:22;94.45;;;5.75;;
4895;SDS011;2463;49.948;8.472;2023-11-21T05:17:49;90.93;;;5.30;;
4895;SDS011;2463;49.948;8.472;2023-11-21T05:20:18;92.43;;;6.15;;
4895;SDS011;2463;49.948;8.472;2023-11-21T05:22:48;91.00;;;5.75;;
4895;SDS011;2463;49.948;8.472;2023-11-21T05:25:16;91.95;;;6.57;;
4895;SDS011;2463;49.948;8.472;2023-11-21T05:27:46;94.90;;;6.97;;
4895;SDS011;2463;49.948;8.472;2023-11-21T05:30:14;92.57;;;7.68;;
4895;SDS011;2463;49.948;8.472;2023-11-21T05:32:41;92.53;;;6.15;;
4895;SDS011;2463;49.948;8.472;2023-11-21T05:35:12;91.85;;;6.88;;
4895;SDS011;2463;49.948;8.472;2023-11-21T05:37:43;90.22;;;6.15;;
4895;SDS011;2463;49.948;8.472;2023-11-21T05:40:11;91.32;;;5.95;;
4895;SDS011;2463;49.948;8.472;2023-11-21T05:42:39;90.75;;;5.65;;
4895;SDS011;2463;49.948;8.472;2023-11-21T05:45:07;94.35;;;6.28;;
4895;SDS011;2463;49.948;8.472;2023-11-21T05:47:41;91.72;;;5.75;;
4895;SDS011;2463;49.948;8.472;2023-11-21T05:50:10;90.68;;;6.18;;
4895;SDS011;2463;49.948;8.472;2023-11-21T05:52:41;92.78;;;6.75;;
4895;SDS011;2463;49.948;8.472;2023-11-21T05:55:10;90.53;;;5.90;;
4895;SDS011;2463;49.948;8.472;2023-11-21T05:57:37;90.97;;;5.55;;
4895;SDS011;2463;49.948;8.472;2023-11-21T06:00:05;92.18;;;5.82;;
4895;SDS011;2463;49.948;8.472;2023-11-21T06:02:38;92.50;;;6.70;;
4895;SDS011;2463;49.948;8.472;2023-11-21T06:05:08;90.82;;;6.00;;
4895;SDS011;2463;49.948;8.472;2023-11-21T06:07:36;92.05;;;5.95;;
4895;SDS011;2463;49.948;8.472;2023-11-21T06:10:04;91.32;;;6.22;;
4895;SDS011;2463;49.948;8.472;2023-11-21T06:12:37;90.80;;;5.90;;
4895;SDS011;2463;49.948;8.472;2023-11-21T06:15:04;96.70;;;6.15;;
4895;SDS011;2463;49.948;8.472;2023-11-21T06:17:34;93.20;;;6.68;;
4895;SDS011;2463;49.948;8.472;2023-11-21T06:20:03;91.22;;;5.80;;
4895;SDS011;2463;49.948;8.472;2023-11-21T06:22:36;94.90;;;6.13;;
4895;SDS011;2463;49.948;8.472;2023-11-21T06:25:08;91.63;;;6.20;;
4895;SDS011;2463;49.948;8.472;2023-11-21T06:27:39;92.72;;;6.05;;
4895;SDS011;2463;49.948;8.472;2023-11-21T06:30:14;91.57;;;6.00;;
4895;SDS011;2463;49.948;8.472;2023-11-21T06:32:42;95.35;;;7.30;;
4895;SDS011;2463;49.948;8.472;2023-11-21T06:35:13;92.35;;;6.18;;
4895;SDS011;2463;49.948;8.472;2023-11-21T06:37:42;94.20;;;6.68;;
4895;SDS011;2463;49.948;8.472;2023-11-21T06:40:13;92.88;;;6.60;;
4895;SDS011;2463;49.948;8.472;2023-11-21T06:42:45;96.03;;;7.68;;
4895;SDS011;2463;49.948;8.472;2023-11-21T06:45:13;95.40;;;7.25;;
4895;SDS011;2463;49.948;8.472;2023-11-21T06:47:41;92.57;;;6.30;;
4895;SDS011;2463;49.948;8.472;2023-11-21T06:50:08;93.25;;;6.80;;
4895;SDS011;2463;49.948;8.472;2023-11-21T06:52:35;96.13;;;7.45;;
4895;SDS011;2463;49.948;8.472;2023-11-21T06:55:01;95.13;;;7.55;;
4895;SDS011;2463;49.948;8.472;2023-11-21T06:57:29;94.85;;;7.60;;
4895;SDS011;2463;49.948;8.472;2023-11-21T06:59:55;94.15;;;6.90;;
4895;SDS011;2463;49.948;8.472;2023-11-21T07:02:23;96.35;;;7.80;;
4895;SDS011;2463;49.948;8.472;2023-11-21T07:04:50;93.47;;;7.18;;
4895;SDS011;2463;49.948;8.472;2023-11-21T07:07:17;94.93;;;7.05;;
4895;SDS011;2463;49.948;8.472;2023-11-21T07:09:45;95.13;;;7.13;;
4895;SDS011;2463;49.948;8.472;2023-11-21T07:12:12;94.07;;;7.50;;
4895;SDS011;2463;49.948;8.472;2023-11-21T07:14:38;96.20;;;6.88;;
4895;SDS011;2463;49.948;8.472;2023-11-21T07:17:07;94.60;;;7.00;;
4895;SDS011;2463;49.948;8.472;2023-11-21T07:19:33;92.57;;;6.72;;
4895;SDS011;2463;49.948;8.472;2023-11-21T07:22:00;96.85;;;7.45;;
4895;SDS011;2463;49.948;8.472;2023-11-21T07:24:27;96.55;;;6.95;;
4895;SDS011;2463;49.948;8.472;2023-11-21T07:26:54;95.35;;;7.18;;
4895;SDS011;2463;49.948;8.472;2023-11-21T07:29:23;96.05;;;8.05;;
4895;SDS011;2463;49.948;8.472;2023-11-21T07:31:52;93.57;;;7.07;;
4895;SDS011;2463;49.948;8.472;2023-11-21T07:34:20;97.68;;;7.50;;
4895;SDS011;2463;49.948;8.472;2023-11-21T07:36:47;100.30;;;6.53;;
4895;SDS011;2463;49.948;8.472;2023-11-21T07:39:14;93.28;;;6.55;;
4895;SDS011;2463;49.948;8.472;2023-11-21T07:41:42;92.97;;;6.57;;
4895;SDS011;2463;49.948;8.472;2023-11-21T07:44:15;92.45;;;6.32;;
4895;SDS011;2463;49.948;8.472;2023-11-21T07:46:43;93.55;;;6.88;;
4895;SDS011;2463;49.948;8.472;2023-11-21T07:49:10;96.40;;;6.80;;
4895;SDS011;2463;49.948;8.472;2023-11-21T07:51:37;94.63;;;6.88;;
4895;SDS011;2463;49.948;8.472;2023-11-21T07:54:04;96.70;;;6.20;;
4895;SDS011;2463;49.948;8.472;2023-11-21T07:56:31;94.10;;;6.93;;
4895;SDS011;2463;49.948;8.472;2023-11-21T07:58:58;93.05;;;6.20;;
4895;SDS011;2463;49.948;8.472;2023-11-21T08:01:25;92.53;;;6.35;;
4895;SDS011;2463;49.948;8.472;2023-11-21T08:03:51;92.25;;;6.03;;
4895;SDS011;2463;49.948;8.472;2023-11-21T08:06:19;91.78;;;6.40;;
4895;SDS011;2463;49.948;8.472;2023-11-21T08:08:45;94.10;;;6.30;;
4895;SDS011;2463;49.948;8.472;2023-11-21T08:11:12;93.57;;;5.88;;
4895;SDS011;2463;49.948;8.472;2023-11-21T08:13:39;91.00;;;5.80;;
4895;SDS011;2463;49.948;8.472;2023-11-21T08:16:05;96.13;;;6.20;;
4895;SDS011;2463;49.948;8.472;2023-11-21T08:18:33;92.40;;;6.05;;
4895;SDS011;2463;49.948;8.472;2023-11-21T08:21:00;89.80;;;5.45;;
4895;SDS011;2463;49.948;8.472;2023-11-21T08:23:27;90.80;;;5.95;;
4895;SDS011;2463;49.948;8.472;2023-11-21T08:25:54;90.22;;;5.78;;
4895;SDS011;2463;49.948;8.472;2023-11-21T08:28:21;94.20;;;6.13;;
4895;SDS011;2463;49.948;8.472;2023-11-21T08:30:49;89.88;;;5.50;;
4895;SDS011;2463;49.948;8.472;2023-11-21T08:33:16;94.30;;;5.97;;
4895;SDS011;2463;49.948;8.472;2023-11-21T08:35:42;90.07;;;5.68;;
4895;SDS011;2463;49.948;8.472;2023-11-21T08:38:09;90.88;;;5.70;;
4895;SDS011;2463;49.948;8.472;2023-11-21T08:40:36;88.40;;;5.07;;
4895;SDS011;2463;49.948;8.472;2023-11-21T08:43:03;90.28;;;5.20;;
4895;SDS011;2463;49.948;8.472;2023-11-21T08:45:34;90.47;;;5.13;;
4895;SDS011;2463;49.948;8.472;2023-11-21T08:48:01;91.60;;;6.05;;
4895;SDS011;2463;49.948;8.472;2023-11-21T08:50:28;89.22;;;5.05;;
4895;SDS011;2463;49.948;8.472;2023-11-21T08:52:55;90.00;;;5.40;;
4895;SDS011;2463;49.948;8.472;2023-11-21T08:55:22;89.20;;;5.20;;
4895;SDS011;2463;49.948;8.472;2023-11-21T08:57:49;88.72;;;5.00;;
4895;SDS011;2463;49.948;8.472;2023-11-21T09:00:15;89.05;;;4.95;;
4895;SDS011;2463;49.948;8.472;2023-11-21T09:02:45;88.45;;;4.60;;
4895;SDS011;2463;49.948;8.472;2023-11-21T09:05:13;88.55;;;4.68;;
4895;SDS011;2463;49.948;8.472;2023-11-21T09:07:41;89.93;;;5.15;;
4895;SDS011;2463;49.948;8.472;2023-11-21T09:10:08;90.82;;;4.80;;
4895;SDS011;2463;49.948;8.472;2023-11-21T09:12:36;88.88;;;4.80;;
4895;SDS011;2463;49.948;8.472;2023-11-21T09:15:06;88.13;;;4.50;;
4895;SDS011;2463;49.948;8.472;2023-11-21T09:17:35;89.38;;;4.68;;
4895;SDS011;2463;49.948;8.472;2023-11-21T09:20:03;89.75;;;5.10;;
4895;SDS011;2463;49.948;8.472;2023-11-21T09:22:32;90.10;;;5.28;;
4895;SDS011;2463;49.948;8.472;2023-11-21T09:24:59;89.53;;;5.10;;
4895;SDS011;2463;49.948;8.472;2023-11-21T09:27:25;91.70;;;5.20;;
4895;SDS011;2463;49.948;8.472;2023-11-21T09:29:52;88.68;;;4.60;;
4895;SDS011;2463;49.948;8.472;2023-11-21T09:32:20;89.22;;;4.90;;
4895;SDS011;2463;49.948;8.472;2023-11-21T09:34:48;96.80;;;5.90;;
4895;SDS011;2463;49.948;8.472;2023-11-21T09:37:16;102.43;;;5.70;;
4895;SDS011;2463;49.948;8.472;2023-11-21T09:39:43;90.03;;;4.90;;
4895;SDS011;2463;49.948;8.472;2023-11-21T09:42:11;92.80;;;5.20;;
4895;SDS011;2463;49.948;8.472;2023-11-21T09:44:45;89.68;;;4.80;;
4895;SDS011;2463;49.948;8.472;2023-11-21T09:47:29;89.28;;;5.00;;
4895;SDS011;2463;49.948;8.472;2023-11-21T09:49:56;90.85;;;5.00;;
4895;SDS011;2463;49.948;8.472;2023-11-21T09:52:27;88.95;;;5.00;;
4895;SDS011;2463;49.948;8.472;2023-11-21T09:54:55;95.00;;;5.00;;
4895;SDS011;2463;49.948;8.472;2023-11-21T09:57:25;90.28;;;5.30;;
4895;SDS011;2463;49.948;8.472;2023-11-21T09:59:53;90.45;;;5.30;;
4895;SDS011;2463;49.948;8.472;2023-11-21T10:02:25;89.78;;;5.20;;
4895;SDS011;2463;49.948;8.472;2023-11-21T10:04:56;89.50;;;5.03;;
4895;SDS011;2463;49.948;8.472;2023-11-21T10:07:23;89.65;;;5.43;;
4895;SDS011;2463;49.948;8.472;2023-11-21T10:09:50;89.43;;;5.40;;
4895;SDS011;2463;49.948;8.472;2023-11-21T10:12:19;99.38;;;5.90;;
4895;SDS011;2463;49.948;8.472;2023-11-21T10:14:48;91.53;;;5.85;;
4895;SDS011;2463;49.948;8.472;2023-11-21T10:17:15;90.28;;;5.50;;
4895;SDS011;2463;49.948;8.472;2023-11-21T10:19:47;91.57;;;6.63;;
4895;SDS011;2463;49.948;8.472;2023-11-21T10:22:15;92.30;;;5.15;;
4895;SDS011;2463;49.948;8.472;2023-11-21T10:24:42;92.35;;;5.43;;
4895;SDS011;2463;49.948;8.472;2023-11-21T10:27:19;89.57;;;4.97;;
4895;SDS011;2463;49.948;8.472;2023-11-21T10:29:45;91.95;;;5.18;;
4895;SDS011;2463;49.948;8.472;2023-11-21T10:32:12;88.78;;;4.93;;
4895;SDS011;2463;49.948;8.472;2023-11-21T10:34:39;94.40;;;5.13;;
4895;SDS011;2463;49.948;8.472;2023-11-21T10:37:11;89.65;;;5.05;;
4895;SDS011;2463;49.948;8.472;2023-11-21T10:39:38;88.40;;;4.68;;
4895;SDS011;2463;49.948;8.472;2023-11-21T10:42:07;90.57;;;5.28;;
4895;SDS011;2463;49.948;8.472;2023-11-21T10:44:35;89.68;;;4.60;;
4895;SDS011;2463;49.948;8.472;2023-11-21T10:47:02;88.40;;;5.28;;
4895;SDS011;2463;49.948;8.472;2023-11-21T10:49:29;88.90;;;4.63;;
4895;SDS011;2463;49.948;8.472;2023-11-21T10:51:56;90.57;;;5.20;;
4895;SDS011;2463;49.948;8.472;2023-11-21T10:54:23;92.93;;;5.43;;
4895;SDS011;2463;49.948;8.472;2023-11-21T10:56:58;87.40;;;4.72;;
4895;SDS011;2463;49.948;8.472;2023-11-21T10:59:28;92.68;;;5.00;;
4895;SDS011;2463;49.948;8.472;2023-11-21T11:01:57;89.75;;;4.70;;
4895;SDS011;2463;49.948;8.472;2023-11-21T11:04:28;91.47;;;4.70;;
4895;SDS011;2463;49.948;8.472;2023-11-21T11:07:01;92.28;;;4.80;;
4895;SDS011;2463;49.948;8.472;2023-11-21T11:09:32;85.88;;;4.30;;
4895;SDS011;2463;49.948;8.472;2023-11-21T11:12:01;87.82;;;4.53;;
4895;SDS011;2463;49.948;8.472;2023-11-21T11:14:28;86.40;;;3.67;;
4895;SDS011;2463;49.948;8.472;2023-11-21T11:16:56;84.45;;;3.75;;
4895;SDS011;2463;49.948;8.472;2023-11-21T11:19:23;82.57;;;3.53;;
4895;SDS011;2463;49.948;8.472;2023-11-21T11:24:45;83.47;;;3.00;;
4895;SDS011;2463;49.948;8.472;2023-11-21T11:27:54;81.50;;;3.50;;
4895;SDS011;2463;49.948;8.472;2023-11-21T11:36:13;82.57;;;3.07;;
4895;SDS011;2463;49.948;8.472;2023-11-21T11:38:51;84.83;;;4.40;;
4895;SDS011;2463;49.948;8.472;2023-11-21T11:41:25;83.17;;;3.40;;
4895;SDS011;2463;49.948;8.472;2023-11-21T11:43:53;82.40;;;3.60;;
4895;SDS011;2463;49.948;8.472;2023-11-21T11:46:20;82.70;;;3.57;;
4895;SDS011;2463;49.948;8.472;2023-11-21T11:49:06;83.50;;;3.75;;
4895;SDS011;2463;49.948;8.472;2023-11-21T11:51:34;84.15;;;3.70;;
4895;SDS011;2463;49.948;8.472;2023-11-21T11:54:02;84.25;;;4.07;;
4895;SDS011;2463;49.948;8.472;2023-11-21T11:56:30;85.30;;;4.35;;
4895;SDS011;2463;49.948;8.472;2023-11-21T11:59:00;87.10;;;3.78;;
4895;SDS011;2463;49.948;8.472;2023-11-21T12:01:29;84.75;;;3.63;;
4895;SDS011;2463;49.948;8.472;2023-11-21T12:06:41;89.43;;;4.70;;
4895;SDS011;2463;49.948;8.472;2023-11-21T12:09:20;94.10;;;5.50;;
4895;SDS011;2463;49.948;8.472;2023-11-21T12:11:48;94.38;;;4.53;;
4895;SDS011;2463;49.948;8.472;2023-11-21T12:14:15;88.05;;;4.40;;
4895;SDS011;2463;49.948;8.472;2023-11-21T12:16:42;86.35;;;4.50;;
4895;SDS011;2463;49.948;8.472;2023-11-21T12:19:10;86.18;;;4.10;;
4895;SDS011;2463;49.948;8.472;2023-11-21T12:21:37;88.78;;;4.60;;
4895;SDS011;2463;49.948;8.472;2023-11-21T12:24:07;87.53;;;4.63;;
4895;SDS011;2463;49.948;8.472;2023-11-21T12:26:40;86.82;;;4.50;;
4895;SDS011;2463;49.948;8.472;2023-11-21T12:29:06;88.18;;;4.75;;
4895;SDS011;2463;49.948;8.472;2023-11-21T12:31:36;86.10;;;4.03;;
4895;SDS011;2463;49.948;8.472;2023-11-21T12:34:03;87.30;;;4.38;;
4895;SDS011;2463;49.948;8.472;2023-11-21T12:36:31;88.25;;;4.80;;
4895;SDS011;2463;49.948;8.472;2023-11-21T12:38:57;89.45;;;4.43;;
4895;SDS011;2463;49.948;8.472;2023-11-21T12:41:24;87.72;;;4.60;;
4895;SDS011;2463;49.948;8.472;2023-11-21T12:43:51;87.82;;;4.30;;
4895;SDS011;2463;49.948;8.472;2023-11-21T12:46:18;87.18;;;4.10;;
4895;SDS011;2463;49.948;8.472;2023-11-21T12:48:46;87.10;;;4.47;;
4895;SDS011;2463;49.948;8.472;2023-11-21T12:51:13;86.40;;;3.85;;
4895;SDS011;2463;49.948;8.472;2023-11-21T12:53:42;88.10;;;4.47;;
4895;SDS011;2463;49.948;8.472;2023-11-21T12:56:12;90.35;;;4.38;;
4895;SDS011;2463;49.948;8.472;2023-11-21T12:58:40;88.57;;;4.47;;
4895;SDS011;2463;49.948;8.472;2023-11-21T13:01:13;89.50;;;4.60;;
4895;SDS011;2463;49.948;8.472;2023-11-21T13:03:47;88.72;;;5.00;;
4895;SDS011;2463;49.948;8.472;2023-11-21T13:06:15;91.55;;;4.88;;
4895;SDS011;2463;49.948;8.472;2023-11-21T13:08:43;88.47;;;4.50;;
4895;SDS011;2463;49.948;8.472;2023-11-21T13:11:11;87.95;;;4.40;;
4895;SDS011;2463;49.948;8.472;2023-11-21T13:13:41;93.20;;;5.60;;
4895;SDS011;2463;49.948;8.472;2023-11-21T13:16:11;92.90;;;4.97;;
4895;SDS011;2463;49.948;8.472;2023-11-21T13:18:39;88.40;;;4.68;;
4895;SDS011;2463;49.948;8.472;2023-11-21T13:21:08;88.70;;;4.90;;
4895;SDS011;2463;49.948;8.472;2023-11-21T13:23:42;94.43;;;4.95;;
4895;SDS011;2463;49.948;8.472;2023-11-21T13:26:12;90.07;;;4.68;;
4895;SDS011;2463;49.948;8.472;2023-11-21T13:28:40;92.43;;;4.45;;
4895;SDS011;2463;49.948;8.472;2023-11-21T13:31:12;89.10;;;5.20;;
4895;SDS011;2463;49.948;8.472;2023-11-21T13:33:52;88.32;;;4.70;;
4895;SDS011;2463;49.948;8.472;2023-11-21T13:36:23;88.35;;;4.60;;
4895;SDS011;2463;49.948;8.472;2023-11-21T13:38:51;87.63;;;4.38;;
4895;SDS011;2463;49.948;8.472;2023-11-21T13:41:21;89.03;;;4.70;;
4895;SDS011;2463;49.948;8.472;2023-11-21T13:43:56;88.80;;;4.60;;
4895;SDS011;2463;49.948;8.472;2023-11-21T13:46:40;88.55;;;4.60;;
4895;SDS011;2463;49.948;8.472;2023-11-21T13:49:07;89.18;;;4.93;;
4895;SDS011;2463;49.948;8.472;2023-11-21T13:51:36;88.80;;;5.10;;
4895;SDS011;2463;49.948;8.472;2023-11-21T13:54:14;88.95;;;4.70;;
4895;SDS011;2463;49.948;8.472;2023-11-21T13:56:41;89.55;;;4.85;;
4895;SDS011;2463;49.948;8.472;2023-11-21T13:59:10;88.72;;;4.80;;
4895;SDS011;2463;49.948;8.472;2023-11-21T14:01:49;89.68;;;4.70;;
4895;SDS011;2463;49.948;8.472;2023-11-21T14:04:19;94.30;;;5.20;;
4895;SDS011;2463;49.948;8.472;2023-11-21T14:07:01;89.85;;;4.80;;
4895;SDS011;2463;49.948;8.472;2023-11-21T14:09:43;88.63;;;4.47;;
4895;SDS011;2463;49.948;8.472;2023-11-21T14:12:10;89.63;;;5.40;;
4895;SDS011;2463;49.948;8.472;2023-11-21T14:14:39;89.65;;;5.60;;
4895;SDS011;2463;49.948;8.472;2023-11-21T14:17:06;91.18;;;5.35;;
4895;SDS011;2463;49.948;8.472;2023-11-21T14:19:33;93.38;;;4.90;;
4895;SDS011;2463;49.948;8.472;2023-11-21T14:22:03;89.30;;;5.00;;
4895;SDS011;2463;49.948;8.472;2023-11-21T14:24:30;89.15;;;4.72;;
4895;SDS011;2463;49.948;8.472;2023-11-21T14:26:58;89.70;;;4.85;;
4895;SDS011;2463;49.948;8.472;2023-11-21T14:29:25;90.35;;;5.00;;
4895;SDS011;2463;49.948;8.472;2023-11-21T14:31:53;89.40;;;4.90;;
4895;SDS011;2463;49.948;8.472;2023-11-21T14:34:23;88.75;;;4.80;;
4895;SDS011;2463;49.948;8.472;2023-11-21T14:36:50;90.03;;;5.05;;
4895;SDS011;2463;49.948;8.472;2023-11-21T14:39:17;91.32;;;5.18;;
4895;SDS011;2463;49.948;8.472;2023-11-21T14:41:50;88.38;;;4.60;;
4895;SDS011;2463;49.948;8.472;2023-11-21T14:44:19;89.20;;;5.25;;
4895;SDS011;2463;49.948;8.472;2023-11-21T14:46:47;88.43;;;4.70;;
4895;SDS011;2463;49.948;8.472;2023-11-21T14:49:16;88.32;;;4.45;;
4895;SDS011;2463;49.948;8.472;2023-11-21T14:51:46;91.45;;;5.30;;
4895;SDS011;2463;49.948;8.472;2023-11-21T14:54:27;90.93;;;5.45;;
4895;SDS011;2463;49.948;8.472;2023-11-21T14:57:12;89.47;;;5.05;;
4895;SDS011;2463;49.948;8.472;2023-11-21T14:59:44;90.05;;;5.80;;
4895;SDS011;2463;49.948;8.472;2023-11-21T15:02:20;95.70;;;5.90;;
4895;SDS011;2463;49.948;8.472;2023-11-21T15:04:49;92.20;;;6.00;;
4895;SDS011;2463;49.948;8.472;2023-11-21T15:07:19;93.78;;;6.43;;
4895;SDS011;2463;49.948;8.472;2023-11-21T15:09:45;95.25;;;6.35;;
4895;SDS011;2463;49.948;8.472;2023-11-21T15:12:12;93.97;;;5.88;;
4895;SDS011;2463;49.948;8.472;2023-11-21T15:14:46;91.72;;;5.60;;
4895;SDS011;2463;49.948;8.472;2023-11-21T15:17:20;90.22;;;5.47;;
4895;SDS011;2463;49.948;8.472;2023-11-21T15:19:53;89.95;;;5.38;;